Terminal Aerodrome Forecast
Issued by NWS

Home | Current Version | Previous Version | Text Only | Print | Product List | Glossary On
Versions: 1 2 3 4 5 6 7 8 9 10 11 12 13
686
FTUS45 KRIW 192320
TAFRKS
TAF
KRKS 192320Z 2000/2024 27022G32KT P6SM VCSH SCT035 BKN060
     FM200200 27015KT P6SM SCT050 BKN070
     FM200600 26010KT P6SM SCT070 SCT200
     FM201600 23012G19KT P6SM SCT060 SCT200
     FM202000 25018G28KT P6SM SCT070 BKN200=

USA.gov is the U.S. government's official web portal to all federal, state and local government web resources and services.